Meteorología y climatología de Navarra
Datos de la estación - Meteo Navarra

Estación de Pamplona GN

Altitud 455 m.


Datos desde el 30/06/2020 hasta el 01/07/2020 en horario solar
Los datos son PROVISIONALES

Anterior Página 1 de 1 Siguiente Descargar: Formato para Excel 2000 o superior   Formato csv   Formato para OpenOffice Calc
Fecha Temperatura Humedad relativa Radiación global Insolación Precipitación Vel. viento 10 m Vel. viento 10 m Dir. viento 10 m
ºC % W/m² s l/m² m/s km/h º
30/06/2020 0:00 15.6 83 0.0 0 0.0 0.1 0.2 64
30/06/2020 0:10 15.5 83 0.0 0 0.0 0.1 0.3 27
30/06/2020 0:20 15.3 84 0.0 0 0.0 0.2 0.6 71
30/06/2020 0:30 15.3 85 0.0 0 0.0 0.6 2.0 101
30/06/2020 0:40 15.1 86 0.0 0 0.0 0.8 3.0 69
30/06/2020 0:50 14.9 86 0.0 0 0.0 0.5 1.8 94
30/06/2020 1:00 14.8 87 0.0 0 0.0 0.3 1.2 57
30/06/2020 1:10 14.7 87 0.0 0 0.0 0.5 1.9 79
30/06/2020 1:20 14.6 88 0.0 0 0.0 0.1 0.2 65
30/06/2020 1:30 14.6 88 0.0 0 0.0 0.2 0.7 57
30/06/2020 1:40 14.5 88 0.0 0 0.0 0.3 1.0 62
30/06/2020 1:50 14.5 88 0.0 0 0.0 0.8 2.7 78
30/06/2020 2:00 14.5 89 0.0 0 0.0 0.8 2.9 74
30/06/2020 2:10 14.3 89 0.0 0 0.0 1.1 3.9 65
30/06/2020 2:20 14.3 88 0.0 0 0.0 1.1 3.9 54
30/06/2020 2:30 14.3 89 0.0 0 0.0 0.4 1.4 23
30/06/2020 2:40 14.2 88 0.0 0 0.0 1.1 4.0 77
30/06/2020 2:50 14.2 89 0.0 0 0.0 1.4 5.1 69
30/06/2020 3:00 14.1 89 0.0 0 0.0 1.5 5.3 65
30/06/2020 3:10 14.0 89 0.0 0 0.0 0.8 2.8 40
30/06/2020 3:20 14.0 89 0.0 0 0.0 0.3 1.0 62
30/06/2020 3:30 13.8 89 0.0 0 0.0 0.6 2.1 36
30/06/2020 3:40 13.9 89 0.0 0 0.0 1.3 4.8 49
30/06/2020 3:50 13.8 89 0.0 0 0.0 0.5 1.7 59
30/06/2020 4:00 13.7 89 0.0 0 0.0 0.6 2.0 83
30/06/2020 4:10 13.6 89 0.0 0 0.0 0.7 2.6 44
30/06/2020 4:20 13.5 90 0.0 0 0.0 0.3 1.0 87
30/06/2020 4:30 13.5 90 0.0 0 0.0 0.3 0.9 81
30/06/2020 4:40 13.5 90 0.0 0 0.0 0.3 1.0 98
30/06/2020 4:50 13.5 90 0.0 0 0.0 0.4 1.6 96
30/06/2020 5:00 13.5 90 15.1 0 0.0 0.6 2.3 55
30/06/2020 5:10 13.5 89 38.3 184 0.0 0.9 3.1 80
30/06/2020 5:20 13.8 88 67.0 600 0.0 1.0 3.6 76
30/06/2020 5:30 14.0 84 88.1 560 0.0 0.9 3.2 71
30/06/2020 5:40 14.1 83 116.8 600 0.0 1.3 4.8 83
30/06/2020 5:50 14.3 82 145.1 600 0.0 1.3 4.8 86
30/06/2020 6:00 14.5 80 176.9 600 0.0 1.6 5.7 68
30/06/2020 6:10 14.9 79 203.9 600 0.0 1.3 4.7 67
30/06/2020 6:20 15.3 78 233.1 600 0.0 1.4 5.1 56
30/06/2020 6:30 15.8 77 266.6 600 0.0 1.2 4.3 51
30/06/2020 6:40 16.1 76 297.8 600 0.0 1.2 4.5 55
30/06/2020 6:50 16.5 74 329.5 600 0.0 0.8 2.7 56
30/06/2020 7:00 17.1 72 365.4 600 0.0 0.5 1.8 85
30/06/2020 7:10 17.5 71 399.7 600 0.0 0.7 2.6 63
30/06/2020 7:20 17.4 71 440.6 600 0.0 0.7 2.5 98
30/06/2020 7:30 17.9 70 384.3 466 0.0 0.8 3.0 97
30/06/2020 7:40 18.0 70 289.0 256 0.0 0.6 2.0 73
30/06/2020 7:50 17.8 70 244.4 0 0.0 0.7 2.6 104
30/06/2020 8:00 17.8 71 234.0 0 0.0 0.8 2.8 79
30/06/2020 8:10 17.7 72 246.8 0 0.0 0.6 2.2 94
30/06/2020 8:20 17.8 71 242.8 0 0.0 0.9 3.3 93
30/06/2020 8:30 18.2 71 268.1 0 0.0 0.7 2.5 38
30/06/2020 8:40 18.3 70 336.9 198 0.0 0.3 1.0 7
30/06/2020 8:50 18.8 69 461.9 600 0.0 0.3 1.1 337
30/06/2020 9:00 19.4 68 583.4 600 0.0 0.5 1.8 58
30/06/2020 9:10 19.9 65 688.9 600 0.0 0.8 2.8 117
30/06/2020 9:20 20.4 64 648.3 588 0.0 0.7 2.4 115
30/06/2020 9:30 21.1 62 757.6 596 0.0 0.7 2.4 87
30/06/2020 9:40 21.2 61 792.2 600 0.0 1.1 4.1 61
30/06/2020 9:50 21.4 60 808.0 600 0.0 0.7 2.6 82
30/06/2020 10:00 21.9 61 827.0 600 0.0 0.3 0.9 72
30/06/2020 10:10 22.6 60 845.0 600 0.0 0.8 2.7 280
30/06/2020 10:20 23.1 60 862.0 600 0.0 0.5 1.7 8
30/06/2020 10:30 23.5 60 879.0 600 0.0 0.8 2.9 107
30/06/2020 10:40 22.4 54 895.0 516 0.0 0.9 3.1 65
30/06/2020 10:50 24.2 58 906.0 600 0.0 0.9 3.2 61
30/06/2020 11:00 24.5 58 915.0 600 0.0 0.8 2.7 56
30/06/2020 11:10 25.0 57 925.0 600 0.0 0.8 3.0 14
30/06/2020 11:20 25.2 57 934.0 600 0.0 0.6 2.1 41
30/06/2020 11:30 25.6 56 942.0 600 0.0 1.0 3.4 311
30/06/2020 11:40 26.0 56 950.0 600 0.0 1.1 3.9 326
30/06/2020 11:50 26.2 56 954.0 600 0.0 0.6 2.1 10
30/06/2020 12:00 26.8 53 956.0 600 0.0 0.6 2.2 239
30/06/2020 12:10 27.0 51 962.0 600 0.0 2.0 7.2 281
30/06/2020 12:20 27.3 51 962.0 600 0.0 1.3 4.8 278
30/06/2020 12:30 27.9 50 962.0 600 0.0 2.0 7.2 240
30/06/2020 12:40 28.2 49 963.0 600 0.0 2.3 8.2 231
30/06/2020 12:50 28.5 48 956.0 600 0.0 1.1 4.0 241
30/06/2020 13:00 28.7 48 945.0 600 0.0 1.2 4.4 286
30/06/2020 13:10 28.9 49 938.0 600 0.0 1.1 4.0 282
30/06/2020 13:20 29.2 47 929.0 600 0.0 1.5 5.3 276
30/06/2020 13:30 29.3 47 920.0 600 0.0 1.7 6.2 289
30/06/2020 13:40 29.4 48 906.0 600 0.0 0.9 3.3 314
30/06/2020 13:50 29.7 47 890.0 600 0.0 1.3 4.6 326
30/06/2020 14:00 30.0 46 874.0 600 0.0 1.3 4.6 266
30/06/2020 14:10 30.3 44 856.0 600 0.0 1.8 6.6 279
30/06/2020 14:20 30.2 45 840.0 600 0.0 1.2 4.2 336
30/06/2020 14:30 30.1 44 820.0 600 0.0 1.3 4.5 90
30/06/2020 14:40 30.5 44 797.1 600 0.0 0.5 1.8 334
30/06/2020 14:50 30.7 45 776.6 600 0.0 1.4 5.1 45
30/06/2020 15:00 30.5 44 753.8 600 0.0 1.2 4.2 23
30/06/2020 15:10 31.1 42 733.9 600 0.0 1.0 3.5 239
30/06/2020 15:20 31.3 43 713.8 600 0.0 1.2 4.2 342
30/06/2020 15:30 31.1 43 698.4 600 0.0 1.5 5.3 12
30/06/2020 15:40 31.3 43 681.3 600 0.0 0.9 3.3 28
30/06/2020 15:50 31.5 43 654.3 600 0.0 0.8 2.7 20
30/06/2020 16:00 31.6 41 618.3 600 0.0 1.2 4.2 308
30/06/2020 16:10 31.6 40 584.3 600 0.0 0.7 2.6 262
30/06/2020 16:20 31.4 40 552.0 600 0.0 1.2 4.4 12
30/06/2020 16:30 31.4 42 540.3 600 0.0 0.4 1.6 46
30/06/2020 16:40 31.4 41 534.5 600 0.0 0.7 2.6 15
30/06/2020 16:50 31.2 46 495.1 588 0.0 2.2 7.8 24
30/06/2020 17:00 30.6 49 533.6 600 0.0 2.6 9.2 16
30/06/2020 17:10 30.3 50 301.4 364 0.0 2.6 9.4 15
30/06/2020 17:20 29.9 52 430.4 560 0.0 2.5 9.1 23
30/06/2020 17:30 29.7 52 411.3 600 0.0 2.7 9.5 18
30/06/2020 17:40 29.3 53 338.0 564 0.0 2.6 9.3 12
30/06/2020 17:50 28.8 55 113.3 62 0.0 2.9 10.5 29
30/06/2020 18:00 27.8 59 45.6 0 1.7 2.8 10.1 79
30/06/2020 18:10 25.7 68 110.5 14 0.1 2.3 8.2 78
30/06/2020 18:20 25.5 70 151.3 214 0.0 2.5 9.0 14
30/06/2020 18:30 25.0 73 90.7 74 0.0 2.7 9.9 7
30/06/2020 18:40 24.6 74 54.7 0 0.0 2.1 7.7 23
30/06/2020 18:50 24.7 73 48.8 0 0.0 0.9 3.1 3
30/06/2020 19:00 24.8 73 38.4 0 0.0 1.0 3.6 52
30/06/2020 19:10 24.7 75 26.9 0 0.0 0.5 1.7 136
30/06/2020 19:20 24.5 75 23.1 0 0.0 1.0 3.7 86
30/06/2020 19:30 24.3 75 26.0 36 0.0 0.6 2.2 93
30/06/2020 19:40 24.1 77 35.0 600 0.0 0.8 2.9 91
30/06/2020 19:50 23.9 77 27.4 124 0.0 2.2 7.9 60
30/06/2020 20:00 23.6 78 6.1 0 0.0 2.9 10.4 48
30/06/2020 20:10 23.4 76 0.0 0 0.0 2.1 7.7 46
30/06/2020 20:20 23.2 74 0.0 0 0.0 3.5 12.5 52
30/06/2020 20:30 22.9 74 0.0 0 0.0 2.1 7.6 36
30/06/2020 20:40 22.8 75 0.0 0 0.0 2.5 8.8 37
30/06/2020 20:50 22.7 75 0.0 0 0.0 2.0 7.2 39
30/06/2020 21:00 22.8 75 0.0 0 0.0 1.4 4.9 39
30/06/2020 21:10 22.8 76 0.0 0 0.0 1.0 3.6 310
30/06/2020 21:20 23.1 75 0.0 0 0.0 1.1 3.9 207
30/06/2020 21:30 23.3 74 0.0 0 0.0 2.1 7.4 215
30/06/2020 21:40 23.2 73 0.0 0 0.0 0.5 1.7 221
30/06/2020 21:50 22.8 75 0.0 0 0.0 0.9 3.4 21
30/06/2020 22:00 22.5 79 0.0 0 0.0 1.0 3.4 61
30/06/2020 22:10 22.1 81 0.0 0 0.0 1.3 4.6 42
30/06/2020 22:20 21.9 81 0.0 0 0.0 2.0 7.2 51
30/06/2020 22:30 21.7 82 0.0 0 0.0 3.4 12.3 50
30/06/2020 22:40 21.5 82 0.0 0 0.0 2.7 9.8 54
30/06/2020 22:50 21.4 85 0.0 0 0.0 2.2 7.8 51
30/06/2020 23:00 21.1 85 0.0 0 0.0 0.5 1.6 60
30/06/2020 23:10 21.2 84 0.0 0 0.0 0.3 1.1 142
30/06/2020 23:20 21.1 84 0.0 0 0.0 0.4 1.5 176
30/06/2020 23:30 21.1 84 0.0 0 0.0 0.8 2.7 74
30/06/2020 23:40 20.7 86 0.0 0 0.0 0.9 3.4 36
30/06/2020 23:50 20.5 86 0.0 0 0.0 1.3 4.5 31
Anterior Página 1 de 1 Siguiente

NOTA: Tipo de datos según el color:
   - Valores diarios o 10 minutos correctos
   - Valores diarios calculados a partir de un número de datos 10 minutos menor que 144 y mayor que 120, o de un número de datos semihorarios menor que 48 y mayor que 40 (caso de las estaciones de INTIA y del Ministerio)
   - Valores diez minutos estimados


Contacto        Enlaces        Aviso legal